หน้าหลัก
METAR-TAF:

METAR-TAF

ท่าอากาศยาน :

Cabo San Lucas, เม็กซิโก

ละติจูด: 22-56-51N, ลองจิจูด: 109-56-13W, ความสูง: 210 ม.

การสังเกตสภาพอากาศปัจจุบัน

รายงานได้ทำขึ้นเมื่อ 1 ชั่วโมงและ 1 นาทีที่แล้ว ณ เวลา 14:40 UTC
ลม 11 นอตจากตะวันตก/ตะวันตกเฉียงเหนือ
อุณหภูมิ 30°C
ความชื้น 19%
ความกดอากาศ 1007 hPa
ทัศนวิสัย: 16.1 กม.
ท้องฟ้าแจ่มใส

METAR: MMSL 181440Z 30011KT 10SM SKC 30/04 A2974

เวลา: 08:41 (15:41 UTC)

การพยากรณ์

รายงานได้ทำขึ้นเมื่อ 11 ชั่วโมงและ 20 นาทีที่แล้ว ณ เวลา 04:21 UTC
การพยากรณ์มีผลตั้งแต่วันที่ 18 ณ เวลา 06 UTC จนถึงวันที่ 19 ณ เวลา 06 UTC
ลม 8 นอตจากตะวันตก
ทัศนวิสัย: 10 กม.
ท้องฟ้าแจ่มใส
จาก 18 ณ เวลา 1800 UTC
ลม 12 นอตจากตะวันตก/ตะวันตกเฉียงใต้
ทัศนวิสัย: 10 กม.
ท้องฟ้าแจ่มใส
จาก 19 ณ เวลา 0300 UTC
ลม 8 นอตจากตะวันตก/ตะวันตกเฉียงเหนือ
ทัศนวิสัย: 10 กม.
ท้องฟ้าแจ่มใส

TAF: MMSL 180421Z 1806/1906 27008KT P6SM SKC FM181800 24012KT P6SM SKC FM190300 30008KT P6SM SKC

สังเกตการณ์สภาพอากาศและพยากรณ์อากาศของสนามบินมากกว่า 4000 แห่ง (รายงาน METAR และ TAF).

สถานีที่ดูได้จะแสดงไว้ด้วยจุดสีเหลืองและสีแดงบนแผนที่.

เลื่อนเมาส์ไปเหนือจุดเพื่อดูชื่อสถานี.

แล้วคลิกเพื่อดูสังเกตการณ์และการพยากรณ์สภาพอากาศ.

ในการเปลี่ยนแผนที่: คลิกที่ปุ่มสีเขียวที่มีกากบาทสีดำเพื่อซูมเข้า; ที่ปุ่มสีเขียวที่มีขีดเพื่อซูมออก; หรือที่ลูกศรสีเขียวเพื่อไปยังแผนที่ที่อยู่ติดกัน.


METAR-TAF: